createdAt,value
2023-05-07T00:00:41.274Z,100.00
2023-05-07T00:03:12.577Z,100.00
2023-05-07T00:05:42.516Z,100.00
2023-05-07T00:08:11.305Z,100.00
2023-05-07T00:10:41.215Z,100.00
2023-05-07T00:13:10.103Z,100.00
2023-05-07T00:15:38.959Z,100.00
2023-05-07T00:18:07.879Z,100.00
2023-05-07T00:20:38.106Z,100.00
2023-05-07T00:23:06.910Z,100.00
2023-05-07T00:25:35.726Z,100.00
2023-05-07T00:28:04.938Z,100.00
2023-05-07T00:30:34.062Z,100.00
2023-05-07T00:33:02.942Z,100.00
2023-05-07T00:35:31.913Z,100.00
2023-05-07T00:38:02.033Z,100.00
2023-05-07T00:40:30.776Z,100.00
2023-05-07T00:43:01.020Z,100.00
2023-05-07T00:45:30.944Z,100.00
2023-05-07T00:48:02.157Z,100.00
2023-05-07T00:50:32.122Z,100.00
2023-05-07T00:53:03.159Z,100.00
2023-05-07T00:55:32.690Z,100.00
2023-05-07T00:58:01.547Z,100.00
2023-05-07T01:00:30.467Z,100.00
2023-05-07T01:02:59.657Z,100.00
2023-05-07T01:05:29.866Z,100.00
2023-05-07T01:08:01.705Z,100.00
2023-05-07T01:10:32.201Z,100.00
2023-05-07T01:13:02.419Z,100.00
2023-05-07T01:15:31.367Z,100.00
2023-05-07T01:18:00.673Z,100.00
2023-05-07T01:20:35.030Z,100.00
2023-05-07T01:23:07.323Z,100.00
2023-05-07T01:25:38.574Z,100.00
2023-05-07T01:28:07.942Z,100.00
2023-05-07T01:30:43.064Z,100.00
2023-05-07T01:33:15.836Z,100.00
2023-05-07T01:35:48.535Z,100.00
2023-05-07T01:38:20.004Z,100.00
2023-05-07T01:40:49.048Z,100.00
2023-05-07T01:43:18.104Z,100.00
2023-05-07T01:45:50.038Z,100.00
2023-05-07T01:48:19.751Z,100.00
2023-05-07T01:50:50.039Z,100.00
2023-05-07T01:53:20.157Z,100.00
2023-05-07T01:55:48.898Z,100.00
2023-05-07T01:58:18.961Z,100.00
2023-05-07T02:00:50.709Z,100.00
2023-05-07T02:03:19.576Z,100.00
2023-05-07T02:05:57.295Z,100.00
2023-05-07T02:08:34.074Z,100.00
2023-05-07T02:11:03.194Z,100.00
2023-05-07T02:13:34.386Z,100.00
2023-05-07T02:16:03.557Z,100.00
2023-05-07T02:18:32.901Z,100.00
2023-05-07T02:21:01.745Z,100.00
2023-05-07T02:23:30.753Z,100.00
2023-05-07T02:26:01.536Z,100.00
2023-05-07T02:28:30.974Z,100.00
2023-05-07T02:31:04.793Z,100.00
2023-05-07T02:33:35.901Z,100.00
2023-05-07T02:36:10.540Z,100.00
2023-05-07T02:38:45.920Z,100.00
2023-05-07T02:41:15.979Z,100.00
2023-05-07T02:43:44.776Z,100.00
2023-05-07T02:46:14.246Z,100.00
2023-05-07T02:48:48.237Z,100.00
2023-05-07T02:51:19.001Z,100.00
2023-05-07T02:53:47.968Z,100.00
2023-05-07T02:56:18.140Z,100.00
2023-05-07T02:58:46.965Z,100.00
2023-05-07T03:01:17.106Z,100.00
2023-05-07T03:03:53.388Z,100.00
2023-05-07T03:06:22.269Z,100.00
2023-05-07T03:08:51.035Z,100.00
2023-05-07T03:11:21.254Z,100.00
2023-05-07T03:13:50.553Z,100.00
2023-05-07T03:16:21.880Z,100.00
2023-05-07T03:18:51.319Z,100.00
2023-05-07T03:21:20.314Z,100.00
2023-05-07T03:23:49.034Z,100.00
2023-05-07T03:26:20.969Z,100.00
2023-05-07T03:28:52.141Z,100.00
2023-05-07T03:31:21.236Z,100.00
2023-05-07T03:33:54.247Z,100.00
2023-05-07T03:36:23.596Z,100.00
2023-05-07T03:38:53.023Z,100.00
2023-05-07T03:41:26.757Z,100.00
2023-05-07T03:43:55.498Z,100.00
2023-05-07T03:46:27.174Z,100.00
2023-05-07T03:48:56.134Z,100.00
2023-05-07T03:51:24.927Z,100.00
2023-05-07T03:53:54.004Z,100.00
2023-05-07T03:56:27.610Z,100.00
2023-05-07T03:58:57.882Z,100.00
2023-05-07T04:01:26.809Z,100.00
2023-05-07T04:03:56.498Z,100.00
2023-05-07T04:06:25.817Z,100.00
2023-05-07T04:08:55.494Z,100.00
2023-05-07T04:11:26.446Z,100.00
2023-05-07T04:13:55.420Z,100.00
2023-05-07T04:16:26.014Z,100.00
2023-05-07T04:18:54.832Z,100.00
2023-05-07T04:21:24.165Z,100.00
2023-05-07T04:23:53.983Z,100.00
2023-05-07T04:26:24.320Z,100.00
2023-05-07T04:28:54.618Z,100.00
2023-05-07T04:31:23.600Z,100.00
2023-05-07T04:33:55.557Z,100.00
2023-05-07T04:36:27.196Z,100.00
2023-05-07T04:39:01.360Z,100.00
2023-05-07T04:41:30.234Z,100.00
2023-05-07T04:44:01.056Z,100.00
2023-05-07T04:46:32.780Z,100.00
2023-05-07T04:49:01.833Z,100.00
2023-05-07T04:51:30.628Z,100.00
2023-05-07T04:53:59.690Z,100.00
2023-05-07T04:56:31.300Z,100.00
2023-05-07T04:59:02.829Z,100.00
2023-05-07T05:01:32.511Z,100.00
2023-05-07T05:04:02.291Z,100.00
2023-05-07T05:06:31.786Z,100.00
2023-05-07T05:09:01.352Z,100.00
2023-05-07T05:11:32.364Z,100.00
2023-05-07T05:14:06.658Z,100.00
2023-05-07T05:16:35.579Z,100.00
2023-05-07T05:19:05.099Z,100.00
2023-05-07T05:21:36.525Z,100.00
2023-05-07T05:24:10.309Z,100.00
2023-05-07T05:26:39.064Z,100.00
2023-05-07T05:29:09.552Z,100.00
2023-05-07T05:31:42.780Z,100.00
2023-05-07T05:34:12.416Z,100.00
2023-05-07T05:36:43.629Z,100.00
2023-05-07T05:39:12.541Z,100.00
2023-05-07T05:41:41.448Z,100.00
2023-05-07T05:44:12.186Z,100.00
2023-05-07T05:46:41.525Z,100.00
2023-05-07T05:49:10.709Z,100.00
2023-05-07T05:51:40.582Z,100.00
2023-05-07T05:54:09.523Z,100.00
2023-05-07T05:56:38.952Z,100.00
2023-05-07T05:59:07.890Z,100.00
2023-05-07T06:01:38.102Z,100.00
2023-05-07T06:04:07.540Z,100.00
2023-05-07T06:06:37.099Z,100.00
2023-05-07T06:09:06.420Z,100.00
2023-05-07T06:11:42.969Z,100.00
2023-05-07T06:14:13.009Z,100.00
2023-05-07T06:16:43.190Z,100.00
2023-05-07T06:19:12.733Z,100.00
2023-05-07T06:21:42.749Z,100.00
2023-05-07T06:24:11.910Z,100.00
2023-05-07T06:26:41.779Z,100.00
2023-05-07T06:29:11.059Z,100.00
2023-05-07T06:31:43.593Z,100.00
2023-05-07T06:34:15.257Z,100.00
2023-05-07T06:36:44.572Z,100.00
2023-05-07T06:39:39.477Z,100.00
2023-05-07T06:42:08.286Z,100.00
2023-05-07T06:44:42.920Z,100.00
2023-05-07T06:47:16.516Z,100.00
2023-05-07T06:49:47.903Z,100.00
2023-05-07T06:52:19.530Z,100.00
2023-05-07T06:54:50.398Z,100.00
2023-05-07T06:57:21.075Z,100.00
2023-05-07T06:59:49.898Z,100.00
2023-05-07T07:02:20.305Z,100.00
2023-05-07T07:04:51.502Z,100.00
2023-05-07T07:07:20.356Z,100.00
2023-05-07T07:09:52.529Z,100.00
2023-05-07T07:12:22.069Z,100.00
2023-05-07T07:14:50.883Z,100.00
2023-05-07T07:17:21.160Z,100.00
2023-05-07T07:20:14.954Z,100.00
2023-05-07T07:22:46.584Z,100.00
2023-05-07T07:25:18.360Z,100.00
2023-05-07T07:27:47.840Z,100.00
2023-05-07T07:30:17.721Z,100.00
2023-05-07T07:32:51.350Z,100.00
2023-05-07T07:35:20.314Z,100.00
2023-05-07T07:37:51.622Z,100.00
2023-05-07T07:40:21.642Z,100.00
2023-05-07T07:42:50.889Z,100.00
2023-05-07T07:45:20.029Z,100.00
2023-05-07T07:47:52.254Z,100.00
2023-05-07T07:50:36.026Z,100.00
2023-05-07T07:53:12.841Z,100.00
2023-05-07T07:55:42.159Z,100.00
2023-05-07T07:58:13.839Z,100.00
2023-05-07T08:00:43.340Z,100.00
2023-05-07T08:03:15.484Z,100.00
2023-05-07T08:05:52.125Z,100.00
2023-05-07T08:08:21.318Z,100.00
2023-05-07T08:10:51.582Z,100.00
2023-05-07T08:13:28.265Z,100.00
2023-05-07T08:15:57.099Z,100.00
2023-05-07T08:18:29.942Z,100.00
2023-05-07T08:21:00.685Z,100.00
2023-05-07T08:23:29.603Z,98.72
2023-05-07T08:25:59.098Z,100.00
2023-05-07T08:28:28.164Z,100.00
2023-05-07T08:30:57.652Z,94.89
2023-05-07T08:33:28.011Z,93.19
2023-05-07T08:35:56.965Z,95.79
2023-05-07T08:38:25.816Z,97.35
2023-05-07T08:40:54.751Z,98.33
2023-05-07T08:43:28.709Z,98.92
2023-05-07T08:46:02.465Z,99.29
2023-05-07T08:48:36.273Z,95.58
2023-05-07T08:51:17.486Z,99.34
2023-05-07T08:53:49.772Z,100.00
2023-05-07T08:56:24.021Z,98.97
2023-05-07T08:58:57.540Z,89.06
2023-05-07T09:01:28.231Z,85.83
2023-05-07T09:03:59.748Z,83.64
2023-05-07T09:06:31.124Z,89.34
2023-05-07T09:09:02.181Z,89.30
2023-05-07T09:11:33.168Z,86.83
2023-05-07T09:14:03.840Z,81.29
2023-05-07T09:16:38.263Z,78.93
2023-05-07T09:19:08.500Z,78.14
2023-05-07T09:21:38.292Z,79.67
2023-05-07T09:24:10.945Z,74.10
2023-05-07T09:26:43.257Z,68.08
2023-05-07T09:29:13.485Z,66.54
2023-05-07T09:31:42.823Z,67.42
2023-05-07T09:34:16.558Z,68.08
2023-05-07T09:36:48.867Z,74.36
2023-05-07T09:39:20.131Z,70.10
2023-05-07T09:41:50.402Z,66.67
2023-05-07T09:44:27.870Z,76.28
2023-05-07T09:46:57.560Z,85.51
2023-05-07T09:49:38.232Z,83.68
2023-05-07T09:52:12.999Z,84.91
2023-05-07T09:54:49.350Z,81.13
2023-05-07T09:57:21.500Z,78.95
2023-05-07T09:59:56.602Z,75.27
2023-05-07T10:02:27.910Z,71.63
2023-05-07T10:05:01.486Z,66.48
2023-05-07T10:07:33.946Z,75.90
2023-05-07T10:10:09.674Z,81.53
2023-05-07T10:12:43.524Z,79.62
2023-05-07T10:15:18.936Z,78.84
2023-05-07T10:17:53.767Z,79.24
2023-05-07T10:20:24.350Z,75.76
2023-05-07T10:22:57.147Z,75.33
2023-05-07T10:25:33.647Z,81.94
2023-05-07T10:28:13.199Z,82.26
2023-05-07T10:30:58.075Z,80.21
2023-05-07T10:33:31.465Z,81.11
2023-05-07T10:36:05.436Z,79.02
2023-05-07T10:38:35.280Z,76.27
2023-05-07T10:41:06.762Z,75.65
2023-05-07T10:43:44.045Z,77.01
2023-05-07T10:46:20.803Z,80.49
2023-05-07T10:49:12.635Z,81.71
2023-05-07T10:52:15.947Z,80.85
2023-05-07T10:55:22.837Z,73.93
2023-05-07T10:58:32.007Z,71.46
2023-05-07T11:01:53.906Z,69.34
2023-05-07T11:04:29.006Z,72.90
2023-05-07T11:07:30.434Z,72.56
2023-05-07T11:10:13.904Z,74.20
2023-05-07T11:12:58.131Z,74.42
2023-05-07T11:15:38.992Z,76.84
2023-05-07T11:18:16.491Z,76.65
2023-05-07T11:21:05.519Z,71.30
2023-05-07T11:24:03.225Z,65.96
2023-05-07T11:26:47.780Z,67.81
2023-05-07T11:29:21.544Z,63.25
2023-05-07T11:31:53.931Z,63.48
2023-05-07T11:34:25.696Z,68.26
2023-05-07T11:36:57.457Z,66.90
2023-05-07T11:39:40.064Z,64.25
2023-05-07T11:42:09.169Z,61.85
2023-05-07T11:44:49.223Z,64.57
2023-05-07T11:47:21.382Z,68.64
2023-05-07T11:49:52.209Z,71.39
2023-05-07T11:52:23.504Z,74.68
2023-05-07T11:54:56.801Z,74.02
2023-05-07T11:57:26.735Z,72.83
2023-05-07T11:59:56.537Z,71.91
2023-05-07T12:02:26.186Z,65.38
2023-05-07T12:04:55.891Z,61.20
2023-05-07T12:07:26.379Z,60.43
2023-05-07T12:09:57.011Z,61.66
2023-05-07T12:12:25.844Z,56.53
2023-05-07T12:14:55.422Z,55.15
2023-05-07T12:17:53.231Z,53.15
2023-05-07T12:20:24.463Z,54.70
2023-05-07T12:22:57.312Z,53.73
2023-05-07T12:25:30.531Z,52.37
2023-05-07T12:28:03.575Z,51.92
2023-05-07T12:30:32.495Z,49.71
2023-05-07T12:33:01.369Z,49.64
2023-05-07T12:35:30.635Z,50.14
2023-05-07T12:38:03.822Z,52.07
2023-05-07T12:40:40.816Z,52.76
2023-05-07T12:43:10.008Z,54.10
2023-05-07T12:45:41.721Z,54.17
2023-05-07T12:48:12.734Z,52.92
2023-05-07T12:50:41.825Z,51.88
2023-05-07T12:53:12.318Z,51.43
2023-05-07T12:55:46.832Z,51.44
2023-05-07T12:58:19.813Z,51.83
2023-05-07T13:00:51.340Z,51.97
2023-05-07T13:03:33.990Z,53.46
2023-05-07T13:06:05.117Z,53.73
2023-05-07T13:08:35.147Z,54.36
2023-05-07T13:11:06.590Z,54.23
2023-05-07T13:13:38.221Z,56.07
2023-05-07T13:16:09.557Z,56.31
2023-05-07T13:18:40.796Z,54.97
2023-05-07T13:21:14.225Z,56.95
2023-05-07T13:23:43.125Z,60.13
2023-05-07T13:26:25.693Z,63.50
2023-05-07T13:28:56.171Z,62.36
2023-05-07T13:31:25.005Z,61.49
2023-05-07T13:33:54.134Z,60.62
2023-05-07T13:36:25.028Z,60.43
2023-05-07T13:38:54.017Z,60.31
2023-05-07T13:41:24.216Z,60.45
2023-05-07T13:43:53.061Z,59.76
2023-05-07T13:46:21.906Z,58.87
2023-05-07T13:48:52.113Z,58.65
2023-05-07T13:51:20.942Z,58.63
2023-05-07T13:53:49.827Z,57.84
2023-05-07T13:56:18.716Z,58.95
2023-05-07T13:58:59.392Z,57.78
2023-05-07T14:01:29.960Z,58.23
2023-05-07T14:04:00.555Z,60.91
2023-05-07T14:06:29.442Z,62.24
2023-05-07T14:08:59.225Z,63.64
2023-05-07T14:11:28.242Z,65.12
2023-05-07T14:14:00.824Z,66.41
2023-05-07T14:16:29.851Z,65.88
2023-05-07T14:18:58.980Z,67.02
2023-05-07T14:21:27.780Z,67.81
2023-05-07T14:23:57.641Z,67.84
2023-05-07T14:26:28.133Z,65.45
2023-05-07T14:28:59.408Z,63.57
2023-05-07T14:31:28.572Z,63.49
2023-05-07T14:34:00.104Z,64.59
2023-05-07T14:36:28.951Z,61.92
2023-05-07T14:39:00.159Z,63.30
2023-05-07T14:41:29.457Z,63.04
2023-05-07T14:43:59.975Z,64.35
2023-05-07T14:46:29.972Z,65.21
2023-05-07T14:48:59.591Z,66.67
2023-05-07T14:51:29.457Z,68.67
2023-05-07T14:53:58.579Z,69.89
2023-05-07T14:56:27.572Z,69.48
2023-05-07T14:58:56.440Z,69.86
2023-05-07T15:01:29.069Z,70.82
2023-05-07T15:03:58.404Z,71.54
2023-05-07T15:06:28.299Z,72.27
2023-05-07T15:08:57.105Z,72.30
2023-05-07T15:11:26.020Z,70.40
2023-05-07T15:13:54.897Z,68.44
2023-05-07T15:16:25.190Z,64.45
2023-05-07T15:18:54.093Z,63.29
2023-05-07T15:21:23.021Z,61.87
2023-05-07T15:23:51.853Z,61.71
2023-05-07T15:26:23.387Z,61.03
2023-05-07T15:28:52.228Z,61.14
2023-05-07T15:31:21.681Z,60.32
2023-05-07T15:33:52.979Z,59.96
2023-05-07T15:36:25.553Z,59.64
2023-05-07T15:41:23.607Z,62.35
2023-05-07T15:47:24.218Z,61.16
2023-05-07T15:50:21.484Z,59.24
2023-05-07T15:52:55.028Z,59.54
2023-05-07T15:58:21.509Z,61.73
2023-05-07T16:00:57.665Z,62.32
2023-05-07T16:03:32.693Z,61.98
2023-05-07T16:06:03.110Z,61.18
2023-05-07T16:08:33.981Z,60.60
2023-05-07T16:11:02.782Z,62.27
2023-05-07T16:13:31.581Z,59.94
2023-05-07T16:16:00.528Z,59.52
2023-05-07T16:18:32.068Z,59.26
2023-05-07T16:21:06.320Z,58.11
2023-05-07T16:23:35.086Z,59.36
2023-05-07T16:29:28.896Z,62.38
2023-05-07T16:32:22.490Z,63.53
2023-05-07T16:34:51.409Z,62.16
2023-05-07T16:37:21.662Z,62.83
2023-05-07T16:39:52.681Z,61.27
2023-05-07T16:42:22.707Z,61.53
2023-05-07T16:44:51.541Z,62.50
2023-05-07T16:47:20.477Z,62.63
2023-05-07T16:49:50.506Z,62.35
2023-05-07T16:52:22.028Z,62.21
2023-05-07T16:55:04.008Z,61.93
2023-05-07T16:57:32.887Z,60.70
2023-05-07T17:00:01.734Z,59.76
2023-05-07T17:02:30.843Z,59.30
2023-05-07T17:04:59.683Z,59.79
2023-05-07T17:07:29.975Z,60.38
2023-05-07T17:09:58.892Z,61.43
2023-05-07T17:12:35.449Z,61.72
2023-05-07T17:15:14.711Z,62.06
2023-05-07T17:17:43.640Z,61.01
2023-05-07T17:20:15.288Z,61.42
2023-05-07T17:22:58.459Z,60.95
2023-05-07T17:25:27.271Z,61.35
2023-05-07T17:27:57.264Z,61.71
2023-05-07T17:30:39.363Z,62.50
2023-05-07T17:33:20.164Z,64.31
2023-05-07T17:35:50.255Z,65.25
2023-05-07T17:38:20.490Z,65.57
2023-05-07T17:40:49.622Z,66.52
2023-05-07T17:43:24.553Z,67.18
2023-05-07T17:45:53.604Z,68.04
2023-05-07T17:48:23.776Z,68.29
2023-05-07T17:50:52.705Z,69.23
2023-05-07T17:53:24.663Z,69.39
2023-05-07T17:55:54.768Z,69.84
2023-05-07T17:58:25.723Z,70.42
2023-05-07T18:00:56.095Z,70.90
2023-05-07T18:03:25.442Z,70.90
2023-05-07T18:05:54.510Z,71.57
2023-05-07T18:08:29.390Z,71.83
2023-05-07T18:10:58.272Z,72.32
2023-05-07T18:13:27.238Z,72.18
2023-05-07T18:16:03.328Z,72.28
2023-05-07T18:18:32.557Z,71.95
2023-05-07T18:21:04.873Z,73.30
2023-05-07T18:23:50.505Z,74.28
2023-05-07T18:26:19.881Z,74.69
2023-05-07T18:28:53.744Z,76.11
2023-05-07T18:31:37.572Z,76.73
2023-05-07T18:34:22.134Z,78.26
2023-05-07T18:36:58.970Z,80.09
2023-05-07T18:39:42.152Z,79.86
2023-05-07T18:42:11.050Z,81.61
2023-05-07T18:44:40.332Z,83.38
2023-05-07T18:47:09.778Z,83.83
2023-05-07T18:49:38.927Z,85.33
2023-05-07T18:52:07.769Z,85.49
2023-05-07T18:54:41.364Z,85.24
2023-05-07T18:57:12.773Z,86.53
2023-05-07T18:59:43.965Z,86.38
2023-05-07T19:02:14.630Z,87.31
2023-05-07T19:04:43.618Z,87.05
2023-05-07T19:07:13.174Z,86.63
2023-05-07T19:09:53.593Z,85.85
2023-05-07T19:12:30.280Z,85.48
2023-05-07T19:14:59.038Z,84.53
2023-05-07T19:17:27.780Z,84.18
2023-05-07T19:19:56.491Z,83.13
2023-05-07T19:22:25.818Z,83.66
2023-05-07T19:24:55.867Z,84.13
2023-05-07T19:27:24.678Z,84.46
2023-05-07T19:29:53.413Z,84.46
2023-05-07T19:32:22.392Z,84.71
2023-05-07T19:34:51.232Z,85.20
2023-05-07T19:37:22.891Z,84.95
2023-05-07T19:39:51.651Z,85.16
2023-05-07T19:42:21.754Z,84.73
2023-05-07T19:44:50.603Z,84.01
2023-05-07T19:47:19.575Z,84.56
2023-05-07T19:49:48.567Z,84.35
2023-05-07T19:52:17.355Z,84.89
2023-05-07T19:54:46.067Z,85.94
2023-05-07T19:57:15.407Z,86.11
2023-05-07T19:59:47.329Z,87.03
2023-05-07T20:02:16.553Z,89.07
2023-05-07T20:04:45.385Z,89.74
2023-05-07T20:07:14.120Z,88.81
2023-05-07T20:09:43.523Z,90.27
2023-05-07T20:12:12.276Z,90.56
2023-05-07T20:14:41.168Z,90.58
2023-05-07T20:17:11.631Z,92.89
2023-05-07T20:19:40.592Z,93.67
2023-05-07T20:22:09.322Z,92.36
2023-05-07T20:24:41.214Z,92.76
2023-05-07T20:27:10.796Z,93.11
2023-05-07T20:29:39.554Z,94.00
2023-05-07T20:32:08.411Z,95.36
2023-05-07T20:34:38.524Z,95.37
2023-05-07T20:37:07.461Z,94.66
2023-05-07T20:39:36.225Z,94.35
2023-05-07T20:42:05.280Z,96.41
2023-05-07T20:44:34.995Z,95.78
2023-05-07T20:47:03.887Z,96.70
2023-05-07T20:49:32.587Z,96.32
2023-05-07T20:52:02.648Z,96.90
2023-05-07T20:54:31.929Z,98.84
2023-05-07T20:57:00.611Z,98.12
2023-05-07T20:59:29.312Z,98.71
2023-05-07T21:01:58.162Z,99.15
2023-05-07T21:04:27.049Z,100.00
2023-05-07T21:06:55.617Z,100.00
2023-05-07T21:09:26.205Z,100.00
2023-05-07T21:11:55.148Z,100.00
2023-05-07T21:14:23.886Z,100.00
2023-05-07T21:16:52.664Z,100.00
2023-05-07T21:19:21.424Z,100.00
2023-05-07T21:21:50.117Z,100.00
2023-05-07T21:24:19.006Z,100.00
2023-05-07T21:26:49.143Z,100.00
2023-05-07T21:29:17.889Z,100.00
2023-05-07T21:31:46.732Z,100.00
2023-05-07T21:34:15.657Z,100.00
2023-05-07T21:36:44.414Z,100.00
2023-05-07T21:39:13.204Z,100.00
2023-05-07T21:41:41.974Z,100.00
2023-05-07T21:44:12.340Z,100.00
2023-05-07T21:46:41.228Z,100.00
2023-05-07T21:49:10.396Z,100.00
2023-05-07T21:51:42.912Z,100.00
2023-05-07T21:54:15.841Z,100.00
2023-05-07T21:56:48.129Z,100.00
2023-05-07T21:59:19.727Z,100.00
2023-05-07T22:01:48.540Z,100.00
2023-05-07T22:04:17.246Z,100.00
2023-05-07T22:06:45.975Z,100.00
2023-05-07T22:09:14.692Z,100.00
2023-05-07T22:11:43.410Z,100.00
2023-05-07T22:14:12.110Z,100.00
2023-05-07T22:16:42.246Z,100.00
2023-05-07T22:19:11.084Z,100.00
2023-05-07T22:21:39.859Z,100.00
2023-05-07T22:24:09.221Z,100.00
2023-05-07T22:26:38.024Z,100.00
2023-05-07T22:29:06.781Z,100.00
2023-05-07T22:31:37.812Z,100.00
2023-05-07T22:34:08.029Z,100.00
2023-05-07T22:36:36.846Z,100.00
2023-05-07T22:39:07.235Z,100.00
2023-05-07T22:41:36.032Z,100.00
2023-05-07T22:44:05.320Z,100.00
2023-05-07T22:46:34.608Z,100.00
2023-05-07T22:49:04.073Z,100.00
2023-05-07T22:51:34.244Z,100.00
2023-05-07T22:54:03.007Z,100.00
2023-05-07T22:56:31.744Z,100.00
2023-05-07T22:59:00.464Z,100.00
2023-05-07T23:01:34.148Z,100.00
2023-05-07T23:04:03.065Z,100.00
2023-05-07T23:06:33.094Z,100.00
2023-05-07T23:09:01.851Z,100.00
2023-05-07T23:11:30.605Z,100.00
2023-05-07T23:13:59.317Z,100.00
2023-05-07T23:16:28.785Z,100.00
2023-05-07T23:18:57.884Z,100.00
2023-05-07T23:21:27.060Z,100.00
2023-05-07T23:23:57.204Z,100.00
2023-05-07T23:26:28.882Z,100.00
2023-05-07T23:28:57.647Z,100.00
2023-05-07T23:31:26.402Z,100.00
2023-05-07T23:33:55.084Z,100.00
2023-05-07T23:36:29.622Z,100.00
2023-05-07T23:38:59.723Z,100.00
2023-05-07T23:41:28.463Z,100.00
2023-05-07T23:43:57.237Z,100.00
2023-05-07T23:46:26.917Z,100.00
2023-05-07T23:48:55.656Z,100.00
2023-05-07T23:51:24.362Z,100.00
2023-05-07T23:53:53.119Z,100.00
2023-05-07T23:56:23.876Z,100.00
2023-05-07T23:58:52.752Z,100.00
